KCSG

Columbus Airport

Columbus, Georgia, USA
METAR KCSG 101451Z 33008KT 10SM BKN012 OVC020 06/03 A3014 RMK AO2 SLP205 T00610033 52018
Observed Flight Rules
Dec-10 @ 14:51 UTC (an hour ago) Marginal Visual Flight Rules
Wind Visibility Clouds
330° at 8 knots 10 miles
  • Broken at 1,200' AGL
  • Overcast at 2,000' AGL
Temperatures Readings
Current 6°C / 43°F
Dewpoint 3°C / 37°F
Humidity 81%
Altimeter 30.14" Hg
Pressure 1020.5 hPa
Elevation 135
METAR KCSG 101451Z 33008KT 10SM BKN012 OVC020 06/03 A3014 RMK AO2 SLP205 T00610033 52018
Observed Flight Rules
Dec-10 @ 14:51 UTC
(an hour ago)
MVFR
Wind Visibility
330° at 8 knots 10 miles
Clouds
  • Broken at 1,200' AGL
  • Overcast at 2,000' AGL
Temperature Dewpoint
6°C / 43°F 3°C / 37°F
Humidity Altimeter Pressure
81% 30.14" Hg 1020.5 hPa